Junction City, CA

4:40 PM PST on December 21, 2014 (GMT -0800)
Arcata | Change Station
CLOSE
Current Station
Airport
Location: Arcata,
Elevation: 217 ft
Nearby Weather Stations

Elev 217 ft 40.98 °N, 124.10 °W | Updated 40 minutes ago

Partly Cloudy
Partly Cloudy
58 °F
Feels Like 58 °F
N
4
Wind Variable Wind from NW

Today
High -- | Low -- °F
--% Chance of Precip.
Yesterday
High -- | Low -- °F
Precip. -- in
7:32 AM 4:48 PM
Waning Crescent, 0% visible
Pressure 30.30 in
Visibility 0.2 miles
Clouds
Dew Point 57 °F
Humidity 97%
Rainfall 1.22 in
Snow Depth Not available.
UV Not available.
Pollen .50 out of 12
Air Quality Not available.
Flu Activity Not available.
SPECI KACV 220000Z AUTO 32003KT 1/4SM R32/1800V3000FT -RA FG VV002 14/14 A3030 RMK AO2 P0000 T01440139

More Conditions Fewer Conditions

Pressure 30.30 in
Visibility 0.2 miles
Clouds
Dew Point 57 °F
Humidity 97%
Rainfall 1.22 in
Snow Depth Not available.
UV Not available.
Pollen .50 out of 12
Air Quality Not available.
Flu Activity Not available.
SPECI KACV 220000Z AUTO 32003KT 1/4SM R32/1800V3000FT -RA FG VV002 14/14 A3030 RMK AO2 P0000 T01440139

More Conditions Fewer Conditions

10-Day Weather Forecast

Almanac

Astronomy

Dec. 21, 2014 Rise Set
Actual Time
Civil Twilight
Nautical Twilight
Astronomical Twilight
Moon
Length of Visible Light
Length of Day
Tomorrow will be .
, % of the Moon is Illuminated

Today's Extremes

State Highs State Lows

Community

WunderPhotos

Upload Photos

1,779,509 photos uploaded!

WunderBlogs® & News

Nearby

Air Quality

  Air Quality AQ Index Pollutant
Not available.

Snow Depth

Station Depth Elevation

Earthquake Activity

City Distance Mag. Time & Date
Minimum magnitude displayed is 2.5.

Coastal Water Temperatures

Place Temperature

Nearby Weather Stations